Terminal Aerodrome Forecast
Issued by NWS

Home | Current Version | Previous Version | Text Only | Print | Product List | Glossary On
Versions: 1 2 3 4 5 6 7 8 9 10 11 12 13 14 15 16 17 18 19 20
141
FTUS44 KBMX 011354 AAA
TAFTCL
TAF AMD
KTCL 011354Z 0114/0212 15005KT P6SM BKN015
     FM011800 14006KT P6SM SHRA VCTS SCT025 BKN040CB
     FM020000 15005KT P6SM BKN050=

USA.gov is the U.S. government's official web portal to all federal, state and local government web resources and services.